createdAt,value
2019-01-03T17:13:43.284Z,103346.92
2019-01-03T17:16:15.991Z,103333.41
2019-01-03T17:18:48.345Z,103333.38
2019-01-03T17:21:20.491Z,103335.16
2019-01-03T17:23:52.202Z,103333.98
2019-01-03T17:26:23.621Z,103326.89
2019-01-03T17:28:54.473Z,103326.89
2019-01-03T17:31:26.998Z,103332.18
2019-01-03T17:34:02.869Z,103331.59
2019-01-03T17:36:34.736Z,103337.16
2019-01-03T17:39:07.800Z,103338.85
2019-01-03T17:41:38.792Z,103344.87
2019-01-03T17:44:13.403Z,103341.70
2019-01-03T17:46:47.485Z,103347.86
2019-01-03T17:49:23.180Z,103343.14
2019-01-03T17:52:00.267Z,103351.86
2019-01-03T17:54:32.204Z,103348.95
2019-01-03T17:57:05.544Z,103354.02
2019-01-03T17:59:37.115Z,103353.39
2019-01-03T18:02:11.464Z,103354.98
2019-01-03T18:04:45.009Z,103350.27
2019-01-03T18:07:15.294Z,103348.15
2019-01-03T18:09:48.827Z,103349.63
2019-01-03T18:12:19.975Z,103347.69
2019-01-03T18:14:52.718Z,103344.39
2019-01-03T18:17:25.373Z,103337.05
2019-01-03T18:19:57.399Z,103343.23
2019-01-03T18:22:28.400Z,103340.06
2019-01-03T18:25:01.978Z,103329.08
2019-01-03T18:27:34.628Z,103331.77
2019-01-03T18:30:05.816Z,103343.60
2019-01-03T18:32:36.428Z,103335.37
2019-01-03T18:35:08.964Z,103333.24
2019-01-03T18:37:41.276Z,103339.32
2019-01-03T18:40:16.356Z,103348.03
2019-01-03T18:42:50.756Z,103347.80
2019-01-03T18:45:27.388Z,103350.70
2019-01-03T18:47:58.292Z,103347.47
2019-01-03T18:50:29.703Z,103341.35
2019-01-03T18:53:02.522Z,103347.16
2019-01-03T18:55:35.020Z,103345.92
2019-01-03T18:58:11.372Z,103345.69
2019-01-03T19:00:42.639Z,103340.62
2019-01-03T19:03:13.336Z,103344.50
2019-01-03T19:05:44.677Z,103342.61
2019-01-03T19:08:15.307Z,103356.59
2019-01-03T19:10:45.942Z,103358.34
2019-01-03T19:13:19.883Z,103363.30
2019-01-03T19:15:50.898Z,103348.78
2019-01-03T19:18:23.471Z,103350.49
2019-01-03T19:20:54.406Z,103355.49
2019-01-03T19:23:26.244Z,103353.13
2019-01-03T19:25:58.879Z,103365.03
2019-01-03T19:28:30.453Z,103356.61
2019-01-03T19:31:02.156Z,103357.95
2019-01-03T19:33:33.361Z,103361.02
2019-01-03T19:36:06.541Z,103362.45
2019-01-03T19:38:39.696Z,103358.16
2019-01-03T19:41:11.731Z,103365.63
2019-01-03T19:43:45.298Z,103375.54
2019-01-03T19:46:17.498Z,103372.39
2019-01-03T19:48:52.520Z,103376.80
2019-01-03T19:51:23.828Z,103377.42
2019-01-03T19:53:56.177Z,103372.03
2019-01-03T19:56:29.267Z,103380.88
2019-01-03T19:59:06.272Z,103376.11
2019-01-03T20:01:43.295Z,103380.30
2019-01-03T20:04:15.143Z,103373.36
2019-01-03T20:06:47.245Z,103377.98
2019-01-03T20:09:18.886Z,103375.86
2019-01-03T20:11:50.086Z,103369.78
2019-01-03T20:14:23.388Z,103373.45
2019-01-03T20:16:54.801Z,103379.64
2019-01-03T20:19:25.475Z,103379.83
2019-01-03T20:21:57.208Z,103371.80
2019-01-03T20:24:28.771Z,103374.59
2019-01-03T20:27:00.514Z,103369.52
2019-01-03T20:29:31.576Z,103370.28
2019-01-03T20:32:02.283Z,103371.91
2019-01-03T20:34:32.611Z,103369.95
2019-01-03T20:37:06.822Z,103368.64
2019-01-03T20:39:38.268Z,103371.09
2019-01-03T20:42:12.988Z,103366.52
2019-01-03T20:44:45.261Z,103360.80
2019-01-03T20:47:16.693Z,103361.31
2019-01-03T20:49:47.475Z,103362.26
2019-01-03T20:52:20.145Z,103365.53
2019-01-03T20:54:52.306Z,103361.48
2019-01-03T20:57:24.384Z,103364.63
2019-01-03T20:59:57.288Z,103356.87
2019-01-03T21:02:29.029Z,103357.48
2019-01-03T21:05:01.179Z,103347.22
2019-01-03T21:07:33.840Z,103357.25
2019-01-03T21:10:05.778Z,103354.79
2019-01-03T21:12:36.295Z,103356.59
2019-01-03T21:15:10.970Z,103354.77
2019-01-03T21:17:42.574Z,103349.59
2019-01-03T21:20:16.075Z,103354.94
2019-01-03T21:22:46.448Z,103359.33
2019-01-03T21:25:19.428Z,103369.48
2019-01-03T21:27:51.482Z,103358.32
2019-01-03T21:30:25.040Z,103358.99
2019-01-03T21:32:57.734Z,103367.84
2019-01-03T21:35:32.251Z,103368.73
2019-01-03T21:38:03.040Z,103371.59
2019-01-03T21:40:35.889Z,103375.63
2019-01-03T21:43:06.199Z,103370.59
2019-01-03T21:45:36.550Z,103358.81
2019-01-03T21:48:08.286Z,103363.34
2019-01-03T21:50:39.492Z,103355.78
2019-01-03T21:53:09.783Z,103365.76
2019-01-03T21:55:41.570Z,103369.59
2019-01-03T21:58:14.205Z,103374.55
2019-01-03T22:00:46.242Z,103372.23
2019-01-03T22:03:18.237Z,103369.15
2019-01-03T22:05:51.074Z,103378.84
2019-01-03T22:08:22.418Z,103379.64
2019-01-03T22:10:59.988Z,103382.02
2019-01-03T22:13:32.634Z,103375.63
2019-01-03T22:16:05.072Z,103378.80
2019-01-03T22:18:37.505Z,103378.09
2019-01-03T22:21:08.614Z,103382.91
2019-01-03T22:23:39.494Z,103383.61
2019-01-03T22:26:10.508Z,103377.62
2019-01-03T22:28:41.827Z,103380.73
2019-01-03T22:31:12.939Z,103379.78
2019-01-03T22:33:44.294Z,103381.50
2019-01-03T22:36:17.105Z,103385.69
2019-01-03T22:38:47.976Z,103382.32
2019-01-03T22:41:18.899Z,103377.20
2019-01-03T22:43:50.475Z,103384.07
2019-01-03T22:46:22.833Z,103375.23
2019-01-03T22:48:54.335Z,103379.16
2019-01-03T22:51:27.803Z,103384.31
2019-01-03T22:53:59.756Z,103386.49
2019-01-03T22:56:31.525Z,103377.75
2019-01-03T22:59:03.895Z,103376.94
2019-01-03T23:01:36.235Z,103376.55
2019-01-03T23:04:10.533Z,103383.39
2019-01-03T23:06:41.124Z,103382.45
2019-01-03T23:09:15.242Z,103376.26
2019-01-03T23:11:47.787Z,103377.24
2019-01-03T23:14:19.229Z,103383.09
2019-01-03T23:16:52.936Z,103388.69
2019-01-03T23:19:23.696Z,103387.08
2019-01-03T23:21:56.372Z,103396.59
2019-01-03T23:24:33.267Z,103391.09
2019-01-03T23:27:04.123Z,103392.22
2019-01-03T23:29:36.275Z,103387.09
2019-01-03T23:32:08.034Z,103386.59
2019-01-03T23:34:41.435Z,103389.61
2019-01-03T23:37:12.444Z,103384.14
2019-01-03T23:39:44.016Z,103374.96
2019-01-03T23:42:15.828Z,103368.02
2019-01-03T23:45:15.963Z,103370.05
2019-01-03T23:47:49.796Z,103364.91
2019-01-03T23:50:24.704Z,103372.61
2019-01-03T23:52:56.945Z,103373.27
2019-01-03T23:55:29.743Z,103370.23
2019-01-03T23:58:00.746Z,103370.66
